^^
Datos históricos de la estación: Murcia-Puente Tocinos
Diario Informe para Octubre 21, 2020 Unidades:  Ambas    Ingés   Métrico
Diario Semanal Mensual Anual
  Máxima: Mínima: Promedio:
Temperatura: 69.8 °F /  21 °C 63.7 °F /  17.6 °C 64.8 °F /  18.2 °C
Punto de rocio: 63.9 °F /  17.7 °C 58.6 °F /  14.8 °C 60.4 °F /  15.8 °C
Humedad: 93% 67.8% 86%
Velocidad viento: 6.4mph /  10.3km/h - 3.3mph /  5.3km/h
Racha viento: 10.4mph /  16.7km/h - -
Viento- - SSO
Presión: 29.9 in /  1010.9 hPa 29.7 in /  1007.1 hPa -
Precipitación: 0 in /  0.0 mm    
 
 
Tabla de datos para Octubre 21, 2020
Hora Temperatura Punto de rocio Presión Viento Velocidad viento Racha viento Humedad Intensidad lluvia(por hora) Nubes
00:04 65.7 °F /  18.7 °C 63.3 °F /  17.4 °C 29.8in /  1008.3hPa SO 4mph /  6.4km/h 6mph /  9.7km/h 92% 0in /  0.0mm
00:09 65.8 °F /  18.8 °C 63.5 °F /  17.5 °C 29.8in /  1008.5hPa SO 3.6mph /  5.8km/h 6mph /  9.7km/h 92.3% 0in /  0.0mm
00:14 65.8 °F /  18.8 °C 63.9 °F /  17.7 °C 29.8in /  1008.5hPa SO 3.4mph /  5.4km/h 5mph /  8km/h 93% 0in /  0.0mm
00:19 65.8 °F /  18.8 °C 63.9 °F /  17.7 °C 29.8in /  1008.5hPa SO 1.8mph /  2.9km/h 2.9mph /  4.7km/h 93% 0in /  0.0mm
00:24 65.8 °F /  18.8 °C 63.7 °F /  17.6 °C 29.8in /  1008.5hPa SE 1.8mph /  2.9km/h 7.4mph /  11.9km/h 92.7% 0in /  0.0mm
00:29 65.3 °F /  18.5 °C 63 °F /  17.2 °C 29.8in /  1008.0hPa SE 2mph /  3.2km/h 7.4mph /  11.9km/h 91.7% 0in /  0.0mm
00:34 64.8 °F /  18.2 °C 62.1 °F /  16.7 °C 29.8in /  1008.0hPa ESE 2.2mph /  3.6km/h 7mph /  11.3km/h 91% 0in /  0.0mm
00:39 64.2 °F /  17.9 °C 61.5 °F /  16.4 °C 29.8in /  1008.0hPa SE 4.3mph /  6.9km/h 7mph /  11.3km/h 91% 0in /  0.0mm
00:44 64 °F /  17.8 °C 61.3 °F /  16.3 °C 29.8in /  1008.0hPa SSO 4.3mph /  6.9km/h 7.4mph /  11.9km/h 91% 0in /  0.0mm
00:49 64 °F /  17.8 °C 61.3 °F /  16.3 °C 29.8in /  1008.0hPa SSO 4mph /  6.4km/h 6.9mph /  11.1km/h 91% 0in /  0.0mm
00:54 64 °F /  17.8 °C 61.5 °F /  16.4 °C 29.8in /  1008.0hPa SE 3.9mph /  6.3km/h 6mph /  9.7km/h 91.7% 0in /  0.0mm
00:59 64 °F /  17.8 °C 61.7 °F /  16.5 °C 29.8in /  1007.8hPa Sur 3.1mph /  5km/h 5.4mph /  8.7km/h 92% 0in /  0.0mm
01:04 64.2 °F /  17.9 °C 61.7 °F /  16.5 °C 29.8in /  1007.8hPa SSO 3.1mph /  5km/h 6mph /  9.7km/h 91.7% 0in /  0.0mm
01:09 64.2 °F /  17.9 °C 61.5 °F /  16.4 °C 29.8in /  1007.8hPa SSE 3.1mph /  5km/h 6mph /  9.7km/h 91% 0in /  0.0mm
01:14 64.2 °F /  17.9 °C 61.5 °F /  16.4 °C 29.8in /  1007.6hPa SSE 3.2mph /  5.1km/h 6.9mph /  11.1km/h 91% 0in /  0.0mm
01:19 64.2 °F /  17.9 °C 61.5 °F /  16.4 °C 29.8in /  1007.6hPa Sur 4mph /  6.4km/h 7mph /  11.3km/h 91% 0in /  0.0mm
01:24 64 °F /  17.8 °C 61.2 °F /  16.2 °C 29.8in /  1007.6hPa Sur 3.9mph /  6.3km/h 7mph /  11.3km/h 90.2% 0in /  0.0mm
01:29 64 °F /  17.8 °C 61.3 °F /  16.3 °C 29.8in /  1007.4hPa SO 3.1mph /  5km/h 5.9mph /  9.5km/h 90.9% 0in /  0.0mm
01:34 64.2 °F /  17.9 °C 61.5 °F /  16.4 °C 29.8in /  1007.4hPa SSO 3.2mph /  5.1km/h 6mph /  9.7km/h 91% 0in /  0.0mm
01:39 64.2 °F /  17.9 °C 61.3 °F /  16.3 °C 29.8in /  1007.6hPa SSO 3.6mph /  5.8km/h 6.9mph /  11.1km/h 90.3% 0in /  0.0mm
01:44 64.2 °F /  17.9 °C 61.2 °F /  16.2 °C 29.8in /  1007.6hPa SO 3.5mph /  5.7km/h 7mph /  11.3km/h 90% 0in /  0.0mm
01:49 64.2 °F /  17.9 °C 61.2 °F /  16.2 °C 29.8in /  1007.6hPa SO 3.1mph /  5km/h 6.9mph /  11.1km/h 90% 0in /  0.0mm
01:54 64.2 °F /  17.9 °C 61.2 °F /  16.2 °C 29.8in /  1007.6hPa SO 3.2mph /  5.2km/h 7mph /  11.3km/h 90% 0in /  0.0mm
01:59 64.2 °F /  17.9 °C 61.2 °F /  16.2 °C 29.8in /  1007.4hPa SO 4mph /  6.4km/h 6.2mph /  10km/h 90% 0in /  0.0mm
02:04 64.2 °F /  17.9 °C 61.2 °F /  16.2 °C 29.8in /  1007.4hPa SSO 4mph /  6.5km/h 6.9mph /  11.1km/h 90% 0in /  0.0mm
02:09 64.2 °F /  17.9 °C 61.2 °F /  16.2 °C 29.8in /  1007.6hPa SO 4mph /  6.5km/h 7.6mph /  12.2km/h 90% 0in /  0.0mm
02:14 64.2 °F /  17.9 °C 61.3 °F /  16.3 °C 29.8in /  1007.6hPa SO 4.1mph /  6.6km/h 8.1mph /  13km/h 90% 0in /  0.0mm
02:19 64.4 °F /  18 °C 61.5 °F /  16.4 °C 29.8in /  1007.6hPa OSO 4.7mph /  7.6km/h 10mph /  16.1km/h 90% 0in /  0.0mm
02:24 64.4 °F /  18 °C 61.5 °F /  16.4 °C 29.8in /  1008.0hPa SO 4.8mph /  7.7km/h 10.4mph /  16.7km/h 90.2% 0in /  0.0mm
02:29 64.4 °F /  18 °C 61.7 °F /  16.5 °C 29.8in /  1008.0hPa SO 5.2mph /  8.4km/h 10mph /  16.1km/h 91% 0in /  0.0mm
02:34 64.4 °F /  18 °C 61.7 °F /  16.5 °C 29.8in /  1008.0hPa SO 5mph /  8km/h 7mph /  11.3km/h 91% 0in /  0.0mm
02:39 64.4 °F /  18 °C 61.7 °F /  16.5 °C 29.8in /  1008.0hPa Sur 3.6mph /  5.8km/h 5.2mph /  8.4km/h 91% 0in /  0.0mm
02:44 64.4 °F /  18 °C 61.7 °F /  16.5 °C 29.8in /  1008.0hPa Sur 3.5mph /  5.7km/h 5.9mph /  9.5km/h 91% 0in /  0.0mm
02:49 64.2 °F /  17.9 °C 61.5 °F /  16.4 °C 29.8in /  1008.0hPa SE 3.1mph /  5km/h 6.9mph /  11.1km/h 91% 0in /  0.0mm
02:54 64.2 °F /  17.9 °C 61.5 °F /  16.4 °C 29.8in /  1008.0hPa SE 3.4mph /  5.4km/h 8.1mph /  13km/h 91% 0in /  0.0mm
02:59 64.2 °F /  17.9 °C 61.5 °F /  16.4 °C 29.8in /  1007.5hPa SSE 4.7mph /  7.6km/h 8mph /  12.9km/h 91% 0in /  0.0mm
03:04 64.2 °F /  17.9 °C 61.5 °F /  16.4 °C 29.8in /  1007.5hPa SSE 4.5mph /  7.2km/h 6mph /  9.7km/h 91% 0in /  0.0mm
03:09 64.2 °F /  17.9 °C 61.5 °F /  16.4 °C 29.8in /  1007.5hPa Sur 3.1mph /  5km/h 4mph /  6.4km/h 91% 0in /  0.0mm
03:14 64.2 °F /  17.9 °C 61.5 °F /  16.4 °C 29.8in /  1007.5hPa Sur 2.9mph /  4.7km/h 4.6mph /  7.4km/h 91% 0in /  0.0mm
03:19 64.2 °F /  17.9 °C 61.5 °F /  16.4 °C 29.8in /  1007.5hPa SO 2mph /  3.2km/h 5mph /  8km/h 91% 0in /  0.0mm
03:24 64.2 °F /  17.9 °C 61.5 °F /  16.4 °C 29.8in /  1007.5hPa OSO 2.1mph /  3.4km/h 6.9mph /  11.1km/h 91% 0in /  0.0mm
03:29 64.2 °F /  17.9 °C 61.5 °F /  16.4 °C 29.8in /  1007.4hPa SO 3.1mph /  5km/h 7mph /  11.3km/h 91% 0in /  0.0mm
03:34 64.2 °F /  17.9 °C 61.5 °F /  16.4 °C 29.8in /  1007.4hPa Sur 3.3mph /  5.3km/h 7mph /  11.3km/h 91% 0in /  0.0mm
03:39 64.2 °F /  17.9 °C 61.5 °F /  16.4 °C 29.8in /  1007.6hPa Sur 4.3mph /  6.9km/h 7mph /  11.3km/h 91% 0in /  0.0mm
03:44 64.2 °F /  17.9 °C 61.5 °F /  16.4 °C 29.8in /  1007.6hPa Sur 4.3mph /  6.9km/h 7mph /  11.3km/h 91% 0in /  0.0mm
03:49 64.2 °F /  17.9 °C 61.2 °F /  16.2 °C 29.8in /  1007.6hPa Sur 4mph /  6.5km/h 6.2mph /  10km/h 90.1% 0in /  0.0mm
03:54 64.2 °F /  17.9 °C 61.2 °F /  16.2 °C 29.8in /  1007.6hPa SE 4mph /  6.5km/h 6.9mph /  11.1km/h 90% 0in /  0.0mm
03:59 64.2 °F /  17.9 °C 61 °F /  16.1 °C 29.7in /  1007.1hPa SE 4.3mph /  6.9km/h 9.2mph /  14.8km/h 89.7% 0in /  0.0mm
04:04 64 °F /  17.8 °C 60.6 °F /  15.9 °C 29.7in /  1007.1hPa SSE 4.5mph /  7.3km/h 10.4mph /  16.7km/h 89% 0in /  0.0mm
04:09 63.9 °F /  17.7 °C 60.6 °F /  15.9 °C 29.7in /  1007.2hPa SSE 6.4mph /  10.3km/h 10.4mph /  16.7km/h 89% 0in /  0.0mm
04:14 63.9 °F /  17.7 °C 60.8 °F /  16 °C 29.7in /  1007.2hPa Sur 6.4mph /  10.3km/h 10mph /  16.1km/h 89.9% 0in /  0.0mm
04:19 63.9 °F /  17.7 °C 60.8 °F /  16 °C 29.7in /  1007.2hPa Sur 6.4mph /  10.3km/h 10.4mph /  16.7km/h 89.5% 0in /  0.0mm
04:24 63.9 °F /  17.7 °C 60.6 °F /  15.9 °C 29.7in /  1007.2hPa Sur 6.4mph /  10.3km/h 10mph /  16.1km/h 89% 0in /  0.0mm
04:29 64 °F /  17.8 °C 60.6 °F /  15.9 °C 29.7in /  1007.2hPa Sur 6.2mph /  10km/h 10mph /  16.1km/h 89% 0in /  0.0mm
04:34 64.2 °F /  17.9 °C 60.8 °F /  16 °C 29.7in /  1007.2hPa Sur 6.2mph /  10km/h 10.4mph /  16.7km/h 88.5% 0in /  0.0mm
04:39 64.4 °F /  18 °C 60.8 °F /  16 °C 29.8in /  1007.4hPa SSO 6.2mph /  10km/h 9mph /  14.5km/h 87.9% 0in /  0.0mm
04:44 64.8 °F /  18.2 °C 60.8 °F /  16 °C 29.8in /  1007.4hPa SO 6mph /  9.7km/h 9mph /  14.5km/h 86.9% 0in /  0.0mm
04:49 64.9 °F /  18.3 °C 60.6 °F /  15.9 °C 29.8in /  1007.4hPa SO 5.2mph /  8.4km/h 8.1mph /  13km/h 86% 0in /  0.0mm
04:54 64.9 °F /  18.3 °C 60.4 °F /  15.8 °C 29.8in /  1007.4hPa SO 5mph /  8.1km/h 7mph /  11.3km/h 85.2% 0in /  0.0mm
04:59 65.1 °F /  18.4 °C 60.4 °F /  15.8 °C 29.8in /  1007.4hPa OSO 4mph /  6.5km/h 6mph /  9.7km/h 84.6% 0in /  0.0mm
05:04 65.1 °F /  18.4 °C 60.3 °F /  15.7 °C 29.8in /  1007.4hPa OSO 3.9mph /  6.2km/h 5mph /  8km/h 84% 0in /  0.0mm
05:09 65.1 °F /  18.4 °C 60.3 °F /  15.7 °C 29.8in /  1007.4hPa OSO 2.9mph /  4.7km/h 5.2mph /  8.4km/h 84% 0in /  0.0mm
05:14 65.1 °F /  18.4 °C 60.3 °F /  15.7 °C 29.8in /  1007.4hPa Oeste 3mph /  4.8km/h 6.2mph /  10km/h 84% 0in /  0.0mm
05:19 64.9 °F /  18.3 °C 60.1 °F /  15.6 °C 29.8in /  1007.4hPa Oeste 3.6mph /  5.8km/h 6mph /  9.7km/h 84.3% 0in /  0.0mm
05:24 64.9 °F /  18.3 °C 60.3 °F /  15.7 °C 29.8in /  1007.4hPa Oeste 3.5mph /  5.6km/h 6mph /  9.7km/h 85% 0in /  0.0mm
05:29 64.8 °F /  18.2 °C 60.1 °F /  15.6 °C 29.8in /  1007.4hPa SO 2.9mph /  4.7km/h 5mph /  8km/h 85% 0in /  0.0mm
05:34 64.8 °F /  18.2 °C 60.1 °F /  15.6 °C 29.8in /  1007.4hPa SSO 2.7mph /  4.4km/h 5mph /  8km/h 85% 0in /  0.0mm
05:39 64.6 °F /  18.1 °C 60.1 °F /  15.6 °C 29.8in /  1007.8hPa SSO 1.8mph /  2.9km/h 4mph /  6.4km/h 85% 0in /  0.0mm
05:44 64.6 °F /  18.1 °C 60.1 °F /  15.6 °C 29.8in /  1007.8hPa Sur 1.7mph /  2.8km/h 4.3mph /  6.9km/h 85% 0in /  0.0mm
05:49 64.8 °F /  18.2 °C 60.1 °F /  15.6 °C 29.8in /  1007.8hPa SE 1.4mph /  2.2km/h 5.8mph /  9.3km/h 85% 0in /  0.0mm
05:54 64.6 °F /  18.1 °C 60.1 °F /  15.6 °C 29.8in /  1007.8hPa SE 1.7mph /  2.7km/h 5.8mph /  9.3km/h 85% 0in /  0.0mm
05:59 64.6 °F /  18.1 °C 60.1 °F /  15.6 °C 29.8in /  1007.8hPa SE 3.6mph /  5.8km/h 6mph /  9.7km/h 85% 0in /  0.0mm
06:04 64.6 °F /  18.1 °C 60.1 °F /  15.6 °C 29.8in /  1007.8hPa SE 3.3mph /  5.3km/h 5mph /  8km/h 85% 0in /  0.0mm
06:09 64.6 °F /  18.1 °C 60.1 °F /  15.6 °C 29.8in /  1007.8hPa ENE 1.8mph /  2.9km/h 4.6mph /  7.4km/h 85% 0in /  0.0mm
06:14 64.6 °F /  18.1 °C 60.1 °F /  15.6 °C 29.8in /  1007.7hPa ENE 1.8mph /  2.9km/h 5.4mph /  8.7km/h 85% 0in /  0.0mm
06:19 64.4 °F /  18 °C 59.7 °F /  15.4 °C 29.8in /  1007.7hPa Este 2mph /  3.2km/h 6.9mph /  11.1km/h 85% 0in /  0.0mm
06:24 64.2 °F /  17.9 °C 59.5 °F /  15.3 °C 29.8in /  1007.9hPa Este 2.2mph /  3.5km/h 7mph /  11.3km/h 85% 0in /  0.0mm
06:29 64 °F /  17.8 °C 59.4 °F /  15.2 °C 29.8in /  1007.9hPa SE 3.6mph /  5.8km/h 6mph /  9.7km/h 85% 0in /  0.0mm
06:34 64 °F /  17.8 °C 59.7 °F /  15.4 °C 29.8in /  1007.9hPa SE 3.4mph /  5.5km/h 5mph /  8km/h 85.8% 0in /  0.0mm
06:39 64 °F /  17.8 °C 59.7 °F /  15.4 °C 29.8in /  1007.9hPa SE 2mph /  3.2km/h 2.4mph /  3.9km/h 85.9% 0in /  0.0mm
06:44 64 °F /  17.8 °C 59.5 °F /  15.3 °C 29.8in /  1007.8hPa ENE 2mph /  3.2km/h 4.6mph /  7.4km/h 85.2% 0in /  0.0mm
06:49 64 °F /  17.8 °C 59.5 °F /  15.3 °C 29.8in /  1007.8hPa NNO 1.8mph /  2.9km/h 5mph /  8km/h 85.6% 0in /  0.0mm
06:54 64 °F /  17.8 °C 59.7 °F /  15.4 °C 29.8in /  1008.0hPa NNO 1.9mph /  3km/h 4.6mph /  7.4km/h 86% 0in /  0.0mm
06:59 63.9 °F /  17.7 °C 59.5 °F /  15.3 °C 29.8in /  1008.0hPa ONO 2.4mph /  3.9km/h 5.9mph /  9.5km/h 86% 0in /  0.0mm
07:04 63.9 °F /  17.7 °C 59.9 °F /  15.5 °C 29.8in /  1008.0hPa NO 2.5mph /  4km/h 6mph /  9.7km/h 86.9% 0in /  0.0mm
07:09 63.9 °F /  17.7 °C 59.9 °F /  15.5 °C 29.8in /  1008.0hPa NO 2.9mph /  4.7km/h 5mph /  8km/h 87% 0in /  0.0mm
07:14 63.9 °F /  17.7 °C 59.9 °F /  15.5 °C 29.8in /  1008.0hPa NO 2.7mph /  4.4km/h 4.6mph /  7.4km/h 87% 0in /  0.0mm
07:19 63.9 °F /  17.7 °C 59.9 °F /  15.5 °C 29.8in /  1008.0hPa SSO 1.4mph /  2.3km/h 5mph /  8km/h 87% 0in /  0.0mm
07:24 63.9 °F /  17.7 °C 59.9 °F /  15.5 °C 29.8in /  1008.4hPa SSE 1.7mph /  2.7km/h 6.9mph /  11.1km/h 87% 0in /  0.0mm
07:29 63.9 °F /  17.7 °C 59.9 °F /  15.5 °C 29.8in /  1008.4hPa SSE 3.6mph /  5.8km/h 7mph /  11.3km/h 87% 0in /  0.0mm
07:34 63.9 °F /  17.7 °C 59.9 °F /  15.5 °C 29.8in /  1008.4hPa SSE 3.5mph /  5.7km/h 5.2mph /  8.4km/h 87% 0in /  0.0mm
07:39 63.9 °F /  17.7 °C 59.9 °F /  15.5 °C 29.8in /  1008.4hPa SE 3.1mph /  5km/h 8.7mph /  14km/h 87% 0in /  0.0mm
07:44 63.9 °F /  17.7 °C 59.7 °F /  15.4 °C 29.8in /  1008.4hPa SE 3.4mph /  5.5km/h 9.2mph /  14.8km/h 86.5% 0in /  0.0mm
07:49 63.9 °F /  17.7 °C 59.5 °F /  15.3 °C 29.8in /  1008.4hPa SSO 5.4mph /  8.7km/h 9mph /  14.5km/h 86% 0in /  0.0mm
07:54 63.7 °F /  17.6 °C 59.4 °F /  15.2 °C 29.8in /  1008.9hPa SSO 5.2mph /  8.4km/h 7mph /  11.3km/h 86% 0in /  0.0mm
07:59 63.7 °F /  17.6 °C 59.4 °F /  15.2 °C 29.8in /  1008.9hPa SSO 4mph /  6.5km/h 7mph /  11.3km/h 86% 0in /  0.0mm
08:04 63.9 °F /  17.7 °C 59.4 °F /  15.2 °C 29.8in /  1008.9hPa SSE 3.9mph /  6.2km/h 6.4mph /  10.3km/h 85.4% 0in /  0.0mm
08:09 64 °F /  17.8 °C 59.4 °F /  15.2 °C 29.8in /  1009.2hPa Sur 3.1mph /  5km/h 8.1mph /  13km/h 85% 0in /  0.0mm
08:14 64 °F /  17.8 °C 59.4 °F /  15.2 °C 29.8in /  1009.2hPa Sur 3.2mph /  5.2km/h 8mph /  12.9km/h 85% 0in /  0.0mm
08:19 64 °F /  17.8 °C 59.2 °F /  15.1 °C 29.8in /  1009.2hPa SSE 4.3mph /  6.9km/h 7mph /  11.3km/h 84.4% 0in /  0.0mm
08:24 64 °F /  17.8 °C 59 °F /  15 °C 29.8in /  1009.2hPa SSO 4.2mph /  6.7km/h 7mph /  11.3km/h 84% 0in /  0.0mm
08:29 64 °F /  17.8 °C 59.2 °F /  15.1 °C 29.8in /  1008.9hPa SSO 3.1mph /  5km/h 6mph /  9.7km/h 84% 0in /  0.0mm
08:34 64 °F /  17.8 °C 59.2 °F /  15.1 °C 29.8in /  1008.9hPa SSO 3mph /  4.9km/h 5mph /  8km/h 84% 0in /  0.0mm
08:39 64 °F /  17.8 °C 59.2 °F /  15.1 °C 29.8in /  1009.0hPa Sur 2.9mph /  4.7km/h 5mph /  8km/h 84% 0in /  0.0mm
08:44 64 °F /  17.8 °C 58.8 °F /  14.9 °C 29.8in /  1009.0hPa SSO 2.9mph /  4.6km/h 4.6mph /  7.4km/h 83.1% 0in /  0.0mm
08:49 64 °F /  17.8 °C 58.8 °F /  14.9 °C 29.8in /  1009.0hPa OSO 2.4mph /  3.9km/h 5mph /  8km/h 83% 0in /  0.0mm
08:54 64.2 °F /  17.9 °C 58.8 °F /  14.9 °C 29.8in /  1009.2hPa OSO 2.4mph /  3.8km/h 5mph /  8km/h 83% 0in /  0.0mm
08:59 64 °F /  17.8 °C 58.8 °F /  14.9 °C 29.8in /  1009.2hPa OSO 2mph /  3.2km/h 3.5mph /  5.6km/h 83% 0in /  0.0mm
09:04 64 °F /  17.8 °C 58.8 °F /  14.9 °C 29.8in /  1009.2hPa OSO 2mph /  3.2km/h 4.3mph /  6.9km/h 83% 0in /  0.0mm
09:09 64 °F /  17.8 °C 58.8 °F /  14.9 °C 29.8in /  1009.8hPa Oeste 2mph /  3.2km/h 5mph /  8km/h 83% 0in /  0.0mm
09:14 64 °F /  17.8 °C 59 °F /  15 °C 29.8in /  1009.8hPa Oeste 2mph /  3.2km/h 3.5mph /  5.6km/h 84% 0in /  0.0mm
09:19 64 °F /  17.8 °C 59.2 °F /  15.1 °C 29.8in /  1009.8hPa Oeste 1.8mph /  2.9km/h 3mph /  4.8km/h 84% 0in /  0.0mm
09:24 64 °F /  17.8 °C 59.2 °F /  15.1 °C 29.8in /  1009.9hPa Oeste 1.6mph /  2.5km/h 1.4mph /  2.3km/h 84% 0in /  0.0mm
09:29 64.2 °F /  17.9 °C 59.4 °F /  15.2 °C 29.8in /  1009.9hPa Calm   3.6mph /  5.8km/h 84% 0in /  0.0mm
09:34 64.8 °F /  18.2 °C 59.5 °F /  15.3 °C 29.8in /  1009.9hPa SE 0.2mph /  0.4km/h 4mph /  6.4km/h 83.3% 0in /  0.0mm
09:39 64.9 °F /  18.3 °C 59.7 °F /  15.4 °C 29.8in /  1010.2hPa ESE 1.8mph /  2.9km/h 3mph /  4.8km/h 83.3% 0in /  0.0mm
09:44 65.5 °F /  18.6 °C 60.1 °F /  15.6 °C 29.8in /  1010.2hPa ESE 1.6mph /  2.5km/h 1mph /  1.6km/h 82.6% 0in /  0.0mm
09:49 65.8 °F /  18.8 °C 59.7 °F /  15.4 °C 29.8in /  1010.2hPa Calm   5.9mph /  9.5km/h 80.6% 0in /  0.0mm
09:54 66 °F /  18.9 °C 59.7 °F /  15.4 °C 29.8in /  1010.4hPa SSE 0.4mph /  0.6km/h 6mph /  9.7km/h 80% 0in /  0.0mm
09:59 66.2 °F /  19 °C 60.1 °F /  15.6 °C 29.8in /  1010.4hPa SSE 3.1mph /  5km/h 5mph /  8km/h 80.4% 0in /  0.0mm
10:04 66.6 °F /  19.2 °C 59.7 °F /  15.4 °C 29.8in /  1010.4hPa SSO 3.1mph /  5km/h 6.9mph /  11.1km/h 78.8% 0in /  0.0mm
10:09 66.6 °F /  19.2 °C 59.5 °F /  15.3 °C 29.8in /  1010.6hPa SSO 3.1mph /  5km/h 7mph /  11.3km/h 78% 0in /  0.0mm
10:14 66.6 °F /  19.2 °C 59.2 °F /  15.1 °C 29.8in /  1010.6hPa SSO 3.2mph /  5.2km/h 7mph /  11.3km/h 77.1% 0in /  0.0mm
10:19 66.7 °F /  19.3 °C 59.4 °F /  15.2 °C 29.8in /  1010.6hPa Sur 4.3mph /  6.9km/h 7mph /  11.3km/h 77.3% 0in /  0.0mm
10:24 67.1 °F /  19.5 °C 59.5 °F /  15.3 °C 29.9in /  1010.9hPa Sur 4.3mph /  6.9km/h 7mph /  11.3km/h 76.5% 0in /  0.0mm
10:29 67.5 °F /  19.7 °C 59.4 °F /  15.2 °C 29.9in /  1010.9hPa Sur 4mph /  6.5km/h 7.4mph /  11.9km/h 75.6% 0in /  0.0mm
10:34 67.5 °F /  19.7 °C 59.7 °F /  15.4 °C 29.9in /  1010.9hPa SO 4mph /  6.5km/h 7mph /  11.3km/h 76% 0in /  0.0mm
10:39 67.8 °F /  19.9 °C 60.1 °F /  15.6 °C 29.9in /  1010.9hPa OSO 4mph /  6.5km/h 6mph /  9.7km/h 75.8% 0in /  0.0mm
10:44 68.5 °F /  20.3 °C 59.9 °F /  15.5 °C 29.9in /  1010.8hPa SSE 3.7mph /  6km/h 5.2mph /  8.4km/h 73.9% 0in /  0.0mm
10:49 69.1 °F /  20.6 °C 59.5 °F /  15.3 °C 29.9in /  1010.8hPa SSE 2mph /  3.2km/h 5.9mph /  9.5km/h 71.9% 0in /  0.0mm
10:54 69.3 °F /  20.7 °C 59.2 °F /  15.1 °C 29.9in /  1010.9hPa Sur 2.2mph /  3.5km/h 6mph /  9.7km/h 70% 0in /  0.0mm
10:59 69.4 °F /  20.8 °C 58.8 °F /  14.9 °C 29.9in /  1010.9hPa SSO 3.1mph /  5km/h 6.2mph /  10km/h 69.2% 0in /  0.0mm
11:04 69.8 °F /  21 °C 58.6 °F /  14.8 °C 29.9in /  1010.9hPa SSE 3.2mph /  5.1km/h 6.9mph /  11.1km/h 67.8% 0in /  0.0mm
Murcia-Puente Tocinos, España
Compliments of Weather Underground - 2 mb

La estación de MeteoMurcia.com, publica sus datos en los siguientes proyectos:

Weather Underground PWS IMURCIAP2 Meteoclimatic www.awekas.at

W3Counter
Web Analytics